createdAt,value
2022-09-04T00:02:40.359Z,10.13
2022-09-04T00:05:36.618Z,8.27
2022-09-04T00:08:43.319Z,10.40
2022-09-04T00:11:48.201Z,8.77
2022-09-04T00:14:47.400Z,8.53
2022-09-04T00:17:46.362Z,8.50
2022-09-04T00:20:47.859Z,11.47
2022-09-04T00:23:46.607Z,8.13
2022-09-04T00:26:50.754Z,8.30
2022-09-04T00:29:50.155Z,10.43
2022-09-04T00:32:46.916Z,9.00
2022-09-04T00:35:45.282Z,9.40
2022-09-04T00:38:44.845Z,9.20
2022-09-04T00:41:47.573Z,9.33
2022-09-04T00:44:58.446Z,8.50
2022-09-04T00:48:17.493Z,9.20
2022-09-04T00:51:26.128Z,7.80
2022-09-04T00:54:42.327Z,9.40
2022-09-04T00:58:16.758Z,8.67
2022-09-04T01:01:13.113Z,7.80
2022-09-04T01:04:29.469Z,7.47
2022-09-04T01:07:40.363Z,8.90
2022-09-04T01:10:52.261Z,8.40
2022-09-04T01:13:48.767Z,8.95
2022-09-04T01:16:48.475Z,10.03
2022-09-04T01:19:53.954Z,8.77
2022-09-04T01:23:09.537Z,7.20
2022-09-04T01:26:11.708Z,7.53
2022-09-04T01:29:15.517Z,9.37
2022-09-04T01:32:14.101Z,10.33
2022-09-04T01:35:16.581Z,5.97
2022-09-04T01:38:18.236Z,8.05
2022-09-04T01:41:17.439Z,8.08
2022-09-04T01:44:11.714Z,7.60
2022-09-04T01:47:17.632Z,10.20
2022-09-04T01:50:13.740Z,7.37
2022-09-04T01:53:13.621Z,7.80
2022-09-04T01:56:14.665Z,10.33
2022-09-04T01:59:13.454Z,8.43
2022-09-04T02:02:16.977Z,7.60
2022-09-04T02:05:20.046Z,8.27
2022-09-04T02:08:31.289Z,7.67
2022-09-04T02:11:27.823Z,9.57
2022-09-04T02:14:36.060Z,8.00
2022-09-04T02:17:40.195Z,7.33
2022-09-04T02:20:33.714Z,8.93
2022-09-04T02:23:36.597Z,7.65
2022-09-04T02:26:32.201Z,8.30
2022-09-04T02:29:34.125Z,8.20
2022-09-04T02:32:33.134Z,7.20
2022-09-04T02:35:32.921Z,7.90
2022-09-04T02:38:34.160Z,7.67
2022-09-04T02:41:33.246Z,9.30
2022-09-04T02:44:39.338Z,8.47
2022-09-04T02:47:38.164Z,7.87
2022-09-04T02:50:48.222Z,8.40
2022-09-04T02:53:51.891Z,8.93
2022-09-04T02:56:59.076Z,8.37
2022-09-04T03:00:02.650Z,7.93
2022-09-04T03:03:02.323Z,7.07
2022-09-04T03:06:02.744Z,8.10
2022-09-04T03:09:00.998Z,7.40
2022-09-04T03:12:00.401Z,9.83
2022-09-04T03:15:00.014Z,10.23
2022-09-04T03:18:00.644Z,7.60
2022-09-04T03:20:59.644Z,9.40
2022-09-04T03:23:57.641Z,7.13
2022-09-04T03:26:53.914Z,7.87
2022-09-04T03:29:57.239Z,10.07
2022-09-04T03:32:57.020Z,8.55
2022-09-04T03:36:00.350Z,7.30
2022-09-04T03:39:03.099Z,7.50
2022-09-04T03:42:10.632Z,7.70
2022-09-04T03:45:15.946Z,7.53
2022-09-04T03:48:21.726Z,7.83
2022-09-04T03:51:26.248Z,7.43
2022-09-04T03:54:39.378Z,8.43
2022-09-04T03:57:50.419Z,8.70
2022-09-04T04:00:57.436Z,8.80
2022-09-04T04:04:09.539Z,8.63
2022-09-04T04:07:10.451Z,7.90
2022-09-04T04:10:20.875Z,8.43
2022-09-04T04:13:44.192Z,9.13
2022-09-04T04:16:55.861Z,8.70
2022-09-04T04:20:06.004Z,8.30
2022-09-04T04:23:31.367Z,7.47
2022-09-04T04:26:41.011Z,7.87
2022-09-04T04:29:53.706Z,9.53
2022-09-04T04:33:27.131Z,10.70
2022-09-04T04:36:31.657Z,11.67
2022-09-04T04:39:37.238Z,9.70
2022-09-04T04:42:37.220Z,8.50
2022-09-04T04:45:52.195Z,9.10
2022-09-04T04:49:10.639Z,8.43
2022-09-04T04:52:20.109Z,7.27
2022-09-04T04:55:24.610Z,7.77
2022-09-04T04:58:42.447Z,7.90
2022-09-04T05:01:50.574Z,8.60
2022-09-04T05:04:52.927Z,7.23
2022-09-04T05:08:05.082Z,9.33
2022-09-04T05:11:08.326Z,7.57
2022-09-04T05:14:15.514Z,9.73
2022-09-04T05:17:18.804Z,9.03
2022-09-04T05:20:30.011Z,10.07
2022-09-04T05:23:33.795Z,8.10
2022-09-04T05:26:38.124Z,9.35
2022-09-04T05:29:43.881Z,8.13
2022-09-04T05:32:40.676Z,7.23
2022-09-04T05:35:42.271Z,9.37
2022-09-04T05:38:40.651Z,9.70
2022-09-04T05:41:48.247Z,9.10
2022-09-04T05:44:49.383Z,7.43
2022-09-04T05:47:54.430Z,8.37
2022-09-04T05:50:57.302Z,8.07
2022-09-04T05:54:34.401Z,8.50
2022-09-04T05:57:38.108Z,8.03
2022-09-04T06:00:40.994Z,9.43
2022-09-04T06:03:52.421Z,8.63
2022-09-04T06:06:49.810Z,8.07
2022-09-04T06:10:00.525Z,8.83
2022-09-04T06:13:28.998Z,9.17
2022-09-04T06:16:45.319Z,7.43
2022-09-04T06:19:58.317Z,7.73
2022-09-04T06:23:05.300Z,5.57
2022-09-04T06:26:23.136Z,8.33
2022-09-04T06:29:32.376Z,8.47
2022-09-04T06:32:57.379Z,10.13
2022-09-04T06:36:05.790Z,7.13
2022-09-04T06:39:13.559Z,7.67
2022-09-04T06:42:21.858Z,7.10
2022-09-04T06:45:27.561Z,9.77
2022-09-04T06:48:30.240Z,8.50
2022-09-04T06:51:36.811Z,9.83
2022-09-04T06:54:39.497Z,7.43
2022-09-04T06:57:53.645Z,8.13
2022-09-04T07:00:54.311Z,10.13
2022-09-04T07:04:11.296Z,8.67
2022-09-04T07:07:13.360Z,8.70
2022-09-04T07:10:10.660Z,8.13
2022-09-04T07:13:42.071Z,7.93
2022-09-04T07:16:48.239Z,8.07
2022-09-04T07:20:14.815Z,10.40
2022-09-04T07:23:31.283Z,9.70
2022-09-04T07:26:33.964Z,8.23
2022-09-04T07:32:32.566Z,8.17
2022-09-04T07:35:32.383Z,9.87
2022-09-04T07:38:31.010Z,8.33
2022-09-04T07:41:31.529Z,7.90
2022-09-04T07:44:32.304Z,10.47
2022-09-04T07:47:34.562Z,8.00
2022-09-04T07:50:33.123Z,8.80
2022-09-04T07:53:41.917Z,8.70
2022-09-04T07:56:54.162Z,8.77
2022-09-04T08:00:06.288Z,9.73
2022-09-04T08:03:25.035Z,8.70
2022-09-04T08:06:23.576Z,9.23
2022-09-04T08:09:36.489Z,8.17
2022-09-04T08:12:56.783Z,8.30
2022-09-04T08:15:58.306Z,9.43
2022-09-04T08:19:09.317Z,8.57
2022-09-04T08:22:04.170Z,10.53
2022-09-04T08:25:18.047Z,12.57
2022-09-04T08:28:24.877Z,8.40
2022-09-04T08:31:29.547Z,9.83
2022-09-04T08:35:05.731Z,10.23
2022-09-04T08:38:43.024Z,9.83
2022-09-04T08:42:11.099Z,9.93
2022-09-04T08:45:42.112Z,9.97
2022-09-04T08:49:09.762Z,8.68
2022-09-04T08:52:48.025Z,8.80
2022-09-04T08:55:57.466Z,8.73
2022-09-04T08:59:36.401Z,9.13
2022-09-04T09:02:58.191Z,10.13
2022-09-04T09:09:47.725Z,7.57
2022-09-04T09:13:09.046Z,8.63
2022-09-04T09:16:20.575Z,7.23
2022-09-04T09:19:23.380Z,8.40
2022-09-04T09:22:39.411Z,8.63
2022-09-04T09:25:46.395Z,9.17
2022-09-04T09:29:08.332Z,9.20
2022-09-04T09:32:33.537Z,7.80
2022-09-04T09:35:58.225Z,9.10
2022-09-04T09:39:34.497Z,8.47
2022-09-04T09:42:49.607Z,8.03
2022-09-04T09:46:02.411Z,8.80
2022-09-04T09:49:25.862Z,7.80
2022-09-04T09:53:01.086Z,8.03
2022-09-04T09:56:28.380Z,7.73
2022-09-04T10:00:05.279Z,8.53
2022-09-04T10:03:33.323Z,7.23
2022-09-04T10:07:00.993Z,7.87
2022-09-04T10:13:20.949Z,8.58
2022-09-04T10:16:55.132Z,8.47
2022-09-04T10:20:19.168Z,7.60
2022-09-04T10:23:38.191Z,7.70
2022-09-04T10:26:56.003Z,7.27
2022-09-04T10:30:05.031Z,8.43
2022-09-04T10:33:20.414Z,8.13
2022-09-04T10:36:31.287Z,7.77
2022-09-04T10:39:53.697Z,9.10
2022-09-04T10:43:00.784Z,7.73
2022-09-04T10:46:02.519Z,7.40
2022-09-04T10:49:17.036Z,5.97
2022-09-04T10:53:01.526Z,7.10
2022-09-04T10:56:23.771Z,9.67
2022-09-04T10:59:40.376Z,7.90
2022-09-04T11:03:03.621Z,7.90
2022-09-04T11:06:18.817Z,7.93
2022-09-04T11:09:53.252Z,9.30
2022-09-04T11:13:32.752Z,8.30
2022-09-04T11:17:06.563Z,8.90
2022-09-04T11:20:54.915Z,7.73
2022-09-04T11:24:33.642Z,9.93
2022-09-04T11:27:52.510Z,9.53
2022-09-04T11:31:03.581Z,8.67
2022-09-04T11:34:33.501Z,9.37
2022-09-04T11:38:01.783Z,7.25
2022-09-04T11:41:47.541Z,7.33
2022-09-04T11:45:16.982Z,8.27
2022-09-04T11:48:56.528Z,9.87
2022-09-04T11:52:10.445Z,8.27
2022-09-04T11:55:25.272Z,7.93
2022-09-04T11:58:51.230Z,8.63
2022-09-04T12:02:01.871Z,11.57
2022-09-04T12:05:20.764Z,9.60
2022-09-04T12:08:37.818Z,7.87
2022-09-04T12:11:57.600Z,9.37
2022-09-04T12:15:08.611Z,8.27
2022-09-04T12:18:55.127Z,8.93
2022-09-04T12:22:21.312Z,8.53
2022-09-04T12:25:33.007Z,8.27
2022-09-04T12:29:06.820Z,8.93
2022-09-04T12:32:36.129Z,8.17
2022-09-04T12:35:55.395Z,7.17
2022-09-04T12:39:18.965Z,8.60
2022-09-04T12:42:18.364Z,9.70
2022-09-04T12:45:28.470Z,7.97
2022-09-04T12:48:36.091Z,7.60
2022-09-04T12:51:38.226Z,7.07
2022-09-04T12:54:40.086Z,7.03
2022-09-04T13:00:40.764Z,7.87
2022-09-04T13:03:50.632Z,7.13
2022-09-04T13:06:54.364Z,7.50
2022-09-04T13:09:55.202Z,8.00
2022-09-04T13:12:56.246Z,7.60
2022-09-04T13:16:00.548Z,8.73
2022-09-04T13:19:09.184Z,8.47
2022-09-04T13:22:12.660Z,9.80
2022-09-04T13:25:14.763Z,7.87
2022-09-04T13:31:38.817Z,8.20
2022-09-04T13:34:40.825Z,8.63
2022-09-04T13:37:45.554Z,8.27
2022-09-04T13:41:00.520Z,8.43
2022-09-04T13:44:10.309Z,6.63
2022-09-04T13:47:09.401Z,6.80
2022-09-04T13:50:10.218Z,7.20
2022-09-04T13:53:11.658Z,6.83
2022-09-04T13:56:09.995Z,7.47
2022-09-04T13:59:08.831Z,8.83
2022-09-04T14:02:08.488Z,7.07
2022-09-04T14:05:06.001Z,7.23
2022-09-04T14:08:06.897Z,6.67
2022-09-04T14:11:37.782Z,9.83
2022-09-04T14:15:14.666Z,8.47
2022-09-04T14:18:21.016Z,7.07
2022-09-04T14:21:24.739Z,10.07
2022-09-04T14:24:25.968Z,10.57
2022-09-04T14:27:28.434Z,7.75
2022-09-04T14:30:23.248Z,7.10
2022-09-04T14:33:28.989Z,7.83
2022-09-04T14:36:39.372Z,6.23
2022-09-04T14:39:34.513Z,6.13
2022-09-04T14:42:45.968Z,6.17
2022-09-04T14:46:04.928Z,6.03
2022-09-04T14:49:06.273Z,6.93
2022-09-04T14:52:03.268Z,6.47
2022-09-04T14:54:58.979Z,6.17
2022-09-04T14:57:56.305Z,6.63
2022-09-04T15:01:03.022Z,7.93
2022-09-04T15:04:03.337Z,6.03
2022-09-04T15:07:11.432Z,9.27
2022-09-04T15:10:20.303Z,8.43
2022-09-04T15:13:48.864Z,6.87
2022-09-04T15:16:54.628Z,7.20
2022-09-04T15:19:51.599Z,7.60
2022-09-04T15:22:48.047Z,7.20
2022-09-04T15:25:59.461Z,6.17
2022-09-04T15:28:56.100Z,6.47
2022-09-04T15:32:00.949Z,7.07
2022-09-04T15:35:07.400Z,6.63
2022-09-04T15:38:17.949Z,6.63
2022-09-04T15:41:22.998Z,6.97
2022-09-04T15:44:24.676Z,6.13
2022-09-04T15:47:27.132Z,7.23
2022-09-04T15:50:25.818Z,7.37
2022-09-04T15:53:27.288Z,8.30
2022-09-04T15:56:37.432Z,5.80
2022-09-04T15:59:40.586Z,9.20
2022-09-04T16:02:36.675Z,10.80
2022-09-04T16:05:41.791Z,10.33
2022-09-04T16:08:38.857Z,7.10
2022-09-04T16:11:35.888Z,8.00
2022-09-04T16:14:32.137Z,10.60
2022-09-04T16:17:29.151Z,9.00
2022-09-04T16:20:28.777Z,8.73
2022-09-04T16:23:30.025Z,7.30
2022-09-04T16:26:28.490Z,8.20
2022-09-04T16:29:29.008Z,8.47
2022-09-04T16:32:26.159Z,9.13
2022-09-04T16:35:23.517Z,12.30
2022-09-04T16:38:24.207Z,10.50
2022-09-04T16:41:25.893Z,9.55
2022-09-04T16:44:26.791Z,7.83
2022-09-04T16:47:26.290Z,7.83
2022-09-04T16:50:27.446Z,6.50
2022-09-04T16:53:27.682Z,7.10
2022-09-04T16:56:36.432Z,6.97
2022-09-04T16:59:39.764Z,9.47
2022-09-04T17:02:38.377Z,10.03
2022-09-04T17:05:40.531Z,8.90
2022-09-04T17:08:38.355Z,6.80
2022-09-04T17:11:39.765Z,9.77
2022-09-04T17:14:40.334Z,7.67
2022-09-04T17:17:35.613Z,6.93
2022-09-04T17:20:58.496Z,7.97
2022-09-04T17:28:55.744Z,8.90
2022-09-04T17:29:09.207Z,9.23
2022-09-04T17:30:37.395Z,9.58
2022-09-04T17:37:14.690Z,7.95
2022-09-04T17:40:39.387Z,7.93
2022-09-04T17:40:48.435Z,6.97
2022-09-04T17:43:36.935Z,9.78
2022-09-04T17:46:34.954Z,9.45
2022-09-04T17:49:34.486Z,7.87
2022-09-04T17:52:31.820Z,9.20
2022-09-04T17:55:25.767Z,9.47
2022-09-04T17:58:30.017Z,8.20
2022-09-04T18:01:30.659Z,9.77
2022-09-04T18:04:34.156Z,9.77
2022-09-04T18:08:08.326Z,9.13
2022-09-04T18:10:56.551Z,9.13
2022-09-04T18:14:02.514Z,8.93
2022-09-04T18:17:12.730Z,8.90
2022-09-04T18:20:16.229Z,9.80
2022-09-04T18:23:51.311Z,7.67
2022-09-04T18:26:51.905Z,9.80
2022-09-04T18:29:55.215Z,9.73
2022-09-04T18:37:07.721Z,10.57
2022-09-04T18:37:21.497Z,9.13
2022-09-04T18:39:49.778Z,11.40
2022-09-04T18:46:15.184Z,13.67
2022-09-04T18:50:31.291Z,12.93
2022-09-04T18:50:50.392Z,10.50
2022-09-04T18:55:48.198Z,12.77
2022-09-04T18:58:52.915Z,12.00
2022-09-04T19:01:49.119Z,12.60
2022-09-04T19:04:51.882Z,13.10
2022-09-04T19:07:49.789Z,12.67
2022-09-04T19:10:48.960Z,11.60
2022-09-04T19:13:46.656Z,13.60
2022-09-04T19:16:44.058Z,15.17
2022-09-04T19:19:43.651Z,13.90
2022-09-04T19:22:41.408Z,14.70
2022-09-04T19:25:40.610Z,14.37
2022-09-04T19:28:52.363Z,15.77
2022-09-04T19:31:55.670Z,16.63
2022-09-04T19:34:59.304Z,13.08
2022-09-04T19:41:07.829Z,14.70
2022-09-04T19:46:02.226Z,12.03
2022-09-04T19:46:04.529Z,13.90
2022-09-04T19:48:01.529Z,15.57
2022-09-04T19:53:33.440Z,12.83
2022-09-04T19:54:13.729Z,13.97
2022-09-04T19:57:33.499Z,15.97
2022-09-04T20:00:42.559Z,15.90
2022-09-04T20:03:46.847Z,13.63
2022-09-04T20:06:47.585Z,14.23
2022-09-04T20:09:46.169Z,13.67
2022-09-04T20:12:50.874Z,12.67
2022-09-04T20:15:54.036Z,13.10
2022-09-04T20:18:50.283Z,11.65
2022-09-04T20:21:49.759Z,12.33
2022-09-04T20:25:01.858Z,11.97
2022-09-04T20:28:02.100Z,13.87
2022-09-04T20:31:36.712Z,10.67
2022-09-04T20:34:39.413Z,12.13
2022-09-04T20:37:43.732Z,12.95
2022-09-04T20:40:42.929Z,13.80
2022-09-04T20:43:50.118Z,13.03
2022-09-04T20:52:43.708Z,16.17
2022-09-04T20:53:06.107Z,13.00
2022-09-04T20:53:59.802Z,13.40
2022-09-04T20:59:13.449Z,12.85
2022-09-04T21:03:15.216Z,15.30
2022-09-04T21:03:37.370Z,18.37
2022-09-04T21:06:36.058Z,16.47
2022-09-04T21:09:56.467Z,17.70
2022-09-04T21:13:23.641Z,16.20
2022-09-04T21:16:20.948Z,14.80
2022-09-04T21:19:47.889Z,14.83
2022-09-04T21:23:05.727Z,17.00
2022-09-04T21:26:10.251Z,17.17
2022-09-04T21:29:17.843Z,18.33
2022-09-04T21:32:30.302Z,17.67
2022-09-04T21:35:26.486Z,17.40
2022-09-04T21:38:38.314Z,15.97
2022-09-04T21:41:48.232Z,15.07
2022-09-04T21:45:09.549Z,16.47
2022-09-04T21:48:23.788Z,18.87
2022-09-04T21:51:33.960Z,17.87
2022-09-04T21:57:59.035Z,24.43
2022-09-04T22:02:26.632Z,19.63
2022-09-04T22:02:42.951Z,17.53
2022-09-04T22:05:31.792Z,14.97
2022-09-04T22:13:26.210Z,17.80
2022-09-04T22:13:43.096Z,17.83
2022-09-04T22:15:17.959Z,18.37
2022-09-04T22:18:41.668Z,16.43
2022-09-04T22:21:49.508Z,17.33
2022-09-04T22:25:02.209Z,17.30
2022-09-04T22:31:29.699Z,14.67
2022-09-04T22:34:50.001Z,17.70
2022-09-04T22:38:16.440Z,20.77
2022-09-04T22:41:26.901Z,16.70
2022-09-04T22:44:32.043Z,17.53
2022-09-04T22:47:40.054Z,16.63
2022-09-04T22:50:50.765Z,19.03
2022-09-04T22:54:17.564Z,16.07
2022-09-04T22:57:14.267Z,20.20
2022-09-04T23:00:14.703Z,17.93
2022-09-04T23:03:27.202Z,19.43
2022-09-04T23:12:10.836Z,20.63
2022-09-04T23:13:48.524Z,20.83
2022-09-04T23:14:07.634Z,20.60
2022-09-04T23:17:19.703Z,19.73
2022-09-04T23:26:38.854Z,21.20
2022-09-04T23:26:47.727Z,20.53
2022-09-04T23:28:12.310Z,24.47
2022-09-04T23:31:37.466Z,21.67
2022-09-04T23:38:55.935Z,24.03
2022-09-04T23:42:24.219Z,26.07
2022-09-04T23:46:01.135Z,27.63
2022-09-04T23:49:34.499Z,27.07
2022-09-04T23:53:00.460Z,25.20
2022-09-04T23:56:26.785Z,23.23
2022-09-04T23:59:48.078Z,27.70
